Time;durP1;ratioP1;P1;durP2;ratioP2;P2;SDS_P1;SDS_P2;PMS_P1;PMS_P2;Temp;Humidity;BMP_temperature;BMP_pressure;BME280_temperature;BME280_humidity;BME280_pressure;Samples;Min_cycle;Max_cycle;Signal;HPM_P1;HPM_P2
2022/10/05 00:01:24;;;;;;;16.70;8.25;;;;;;;13.43;100.00;99648.63;5090165;28;20477;-94
2022/10/05 00:03:50;;;;;;;16.40;8.13;;;;;;;13.46;100.00;99658.34;5089866;28;20059;-94
2022/10/05 00:06:18;;;;;;;16.00;8.02;;;;;;;13.41;100.00;99638.88;5090142;28;20036;-93
2022/10/05 00:08:43;;;;;;;16.70;9.25;;;;;;;13.58;100.00;99650.03;5082797;28;20040;-92
2022/10/05 00:11:13;;;;;;;15.35;8.65;;;;;;;13.48;100.00;99629.78;5089539;28;20042;-94
2022/10/05 00:13:39;;;;;;;12.65;8.45;;;;;;;13.53;100.00;99649.25;5089519;28;20076;-94
2022/10/05 00:16:12;;;;;;;19.63;8.43;;;;;;;13.42;100.00;99652.19;5089573;28;20052;-92
2022/10/05 00:18:38;;;;;;;18.70;8.15;;;;;;;13.37;100.00;99643.41;5088321;28;20586;-96
2022/10/05 00:21:14;;;;;;;16.20;10.35;;;;;;;13.39;100.00;99662.09;5088678;28;20094;-94
2022/10/05 00:23:42;;;;;;;19.75;7.80;;;;;;;13.33;100.00;99665.78;5089630;28;20036;-93
2022/10/05 00:26:15;;;;;;;16.80;8.70;;;;;;;13.26;100.00;99664.13;5085716;28;20040;-93
2022/10/05 00:28:40;;;;;;;18.58;8.98;;;;;;;13.24;100.00;99668.63;5076061;28;20497;-93
2022/10/05 00:31:13;;;;;;;15.25;8.73;;;;;;;13.32;100.00;99669.38;5076039;28;20041;-94
2022/10/05 00:33:39;;;;;;;17.42;8.75;;;;;;;13.43;100.00;99659.31;5075928;28;20041;-94
2022/10/05 00:36:06;;;;;;;22.83;9.18;;;;;;;13.61;100.00;99667.78;5075954;28;20371;-93
2022/10/05 00:38:32;;;;;;;19.02;9.32;;;;;;;13.71;100.00;99685.34;5075608;28;20040;-94
2022/10/05 00:41:08;;;;;;;19.15;10.20;;;;;;;13.66;100.00;99666.75;5075866;28;20098;-94
2022/10/05 00:44:01;;;;;;;20.95;10.23;;;;;;;13.71;100.00;99669.31;5074840;28;20036;-93
2022/10/05 00:46:37;;;;;;;21.15;10.40;;;;;;;13.59;100.00;99674.97;5071620;28;20047;-94
2022/10/05 00:49:14;;;;;;;30.35;13.40;;;;;;;13.64;100.00;99687.31;5074029;28;20374;-94
2022/10/05 00:51:50;;;;;;;25.25;12.27;;;;;;;13.55;100.00;99658.09;5075280;28;20036;-93
2022/10/05 00:54:27;;;;;;;21.50;11.32;;;;;;;13.58;100.00;99673.22;5072846;28;20413;-92
2022/10/05 00:57:12;;;;;;;21.95;11.88;;;;;;;13.58;100.00;99662.53;5074912;28;20041;-94
2022/10/05 00:59:51;;;;;;;27.23;11.85;;;;;;;13.62;100.00;99678.44;5074300;28;20044;-94
2022/10/05 01:02:24;;;;;;;23.98;12.63;;;;;;;13.51;100.00;99664.44;5074727;28;20090;-93
2022/10/05 01:04:56;;;;;;;22.70;10.43;;;;;;;13.47;100.00;99668.13;5075062;28;20037;-94
2022/10/05 01:07:31;;;;;;;20.27;9.38;;;;;;;13.40;100.00;99667.38;5073161;28;20088;-94
2022/10/05 01:10:04;;;;;;;18.00;8.90;;;;;;;13.35;100.00;99659.47;5072465;28;20040;-93
2022/10/05 01:12:41;;;;;;;16.77;9.05;;;;;;;13.26;100.00;99654.31;5073815;28;20501;-92
2022/10/05 01:15:13;;;;;;;16.58;9.43;;;;;;;13.29;100.00;99658.75;5074222;28;20044;-93
2022/10/05 01:17:43;;;;;;;15.65;10.45;;;;;;;13.21;100.00;99655.38;5075058;28;20064;-94
2022/10/05 01:20:29;;;;;;;24.92;11.07;;;;;;;13.21;100.00;99664.25;5074965;28;20516;-93
2022/10/05 01:23:20;;;;;;;20.48;9.80;;;;;;;13.14;100.00;99647.50;5071210;28;20040;-93
2022/10/05 01:26:00;;;;;;;21.60;9.75;;;;;;;13.04;100.00;99645.06;5074687;28;20071;-93
2022/10/05 01:28:32;;;;;;;17.83;9.77;;;;;;;13.05;100.00;99669.06;5074903;28;20053;-94
2022/10/05 01:31:06;;;;;;;18.92;9.20;;;;;;;12.91;100.00;99649.81;5074807;28;20041;-93
2022/10/05 01:33:40;;;;;;;19.98;9.73;;;;;;;12.95;100.00;99662.19;5073183;28;20040;-94
2022/10/05 01:36:14;;;;;;;21.80;10.07;;;;;;;12.91;100.00;99669.38;5074723;28;20040;-93
2022/10/05 01:38:47;;;;;;;17.17;9.50;;;;;;;12.87;100.00;99672.16;5072894;28;20488;-94
2022/10/05 01:41:24;;;;;;;21.98;9.45;;;;;;;12.84;100.00;99673.09;5073662;28;20546;-94
2022/10/05 01:43:59;;;;;;;18.27;9.35;;;;;;;12.73;100.00;99661.78;5074562;28;20044;-93
2022/10/05 01:46:29;;;;;;;21.40;9.88;;;;;;;12.68;100.00;99659.19;5075054;28;20106;-94
2022/10/05 01:49:10;;;;;;;16.80;10.07;;;;;;;12.71;100.00;99668.94;5073603;28;20037;-94
2022/10/05 01:51:46;;;;;;;18.52;10.32;;;;;;;12.71;100.00;99663.59;5072147;28;20033;-93
2022/10/05 01:54:25;;;;;;;19.85;10.20;;;;;;;12.68;100.00;99663.66;5073834;28;20040;-92
2022/10/05 01:56:58;;;;;;;21.70;9.98;;;;;;;12.60;100.00;99652.25;5073319;28;20041;-91
2022/10/05 01:59:36;;;;;;;22.75;10.27;;;;;;;12.54;100.00;99645.28;5071546;28;20036;-92
2022/10/05 02:02:06;;;;;;;19.20;9.27;;;;;;;12.43;100.00;99632.16;5074313;28;20122;-94
2022/10/05 02:04:36;;;;;;;17.67;8.68;;;;;;;12.57;100.00;99658.53;5072413;28;20572;-94
2022/10/05 02:07:07;;;;;;;16.40;8.68;;;;;;;12.49;100.00;99650.72;5074356;28;20385;-94
2022/10/05 02:09:40;;;;;;;19.27;9.70;;;;;;;12.45;100.00;99646.34;5074497;28;20125;-94
2022/10/05 02:12:12;;;;;;;17.92;9.18;;;;;;;12.45;100.00;99651.69;5074130;28;20059;-94
2022/10/05 02:14:43;;;;;;;22.02;10.82;;;;;;;12.45;100.00;99651.69;5074010;28;20553;-93
2022/10/05 02:17:13;;;;;;;16.90;9.45;;;;;;;12.43;100.00;99648.16;5074282;28;20044;-94
2022/10/05 02:19:43;;;;;;;18.30;10.00;;;;;;;12.40;100.00;99650.88;5074348;28;20043;-93
2022/10/05 02:22:15;;;;;;;21.60;9.18;;;;;;;12.37;100.00;99650.09;5073844;28;20048;-94
2022/10/05 02:24:47;;;;;;;17.58;8.77;;;;;;;12.34;100.00;99645.69;5074002;28;20042;-93
2022/10/05 02:27:18;;;;;;;18.40;9.63;;;;;;;12.31;100.00;99653.75;5073950;28;20044;-93
2022/10/05 02:29:48;;;;;;;15.80;8.77;;;;;;;12.32;100.00;99660.84;5068692;28;20110;-93
2022/10/05 02:32:20;;;;;;;18.23;9.45;;;;;;;12.31;100.00;99669.75;5071925;28;20048;-93
2022/10/05 02:34:45;;;;;;;15.45;8.65;;;;;;;12.24;100.00;99662.78;5071119;28;20554;-95
2022/10/05 02:37:23;;;;;;;19.73;9.10;;;;;;;12.34;100.00;99675.03;5072217;28;20041;-93
2022/10/05 02:40:03;;;;;;;19.73;10.38;;;;;;;12.47;100.00;99659.63;5073880;28;20041;-94
2022/10/05 02:42:35;;;;;;;19.42;10.18;;;;;;;12.50;100.00;99662.25;5063716;28;20102;-94
2022/10/05 02:45:14;;;;;;;19.00;10.32;;;;;;;12.55;100.00;99671.03;5070284;28;20126;-94
2022/10/05 02:47:45;;;;;;;15.00;8.93;;;;;;;12.47;100.00;99660.53;5072521;28;20028;-94
2022/10/05 02:50:23;;;;;;;22.27;9.48;;;;;;;12.46;100.00;99666.75;5073529;28;20098;-93
2022/10/05 02:52:58;;;;;;;18.85;10.10;;;;;;;12.37;100.00;99663.41;5072542;28;20045;-93
2022/10/05 02:55:32;;;;;;;18.92;9.77;;;;;;;12.49;100.00;99668.47;5073695;28;20140;-94
2022/10/05 02:58:08;;;;;;;17.40;10.35;;;;;;;12.42;100.00;99656.19;5073740;28;20040;-94
2022/10/05 03:00:41;;;;;;;22.02;10.98;;;;;;;12.45;100.00;99666.81;5073766;28;20048;-93
2022/10/05 03:03:18;;;;;;;24.27;11.38;;;;;;;12.43;100.00;99668.63;5073676;28;20094;-94
2022/10/05 03:05:50;;;;;;;19.10;10.55;;;;;;;12.43;100.00;99669.50;5073415;28;20036;-94
2022/10/05 03:08:20;;;;;;;22.55;10.93;;;;;;;12.51;100.00;99656.91;5073617;28;20041;-92
2022/10/05 03:10:56;;;;;;;21.52;10.55;;;;;;;12.59;100.00;99664.72;5072038;28;20040;-93
2022/10/05 03:13:28;;;;;;;19.70;10.15;;;;;;;12.54;100.00;99654.16;5073150;28;20040;-93
2022/10/05 03:16:15;;;;;;;18.65;10.52;;;;;;;12.68;100.00;99671.66;5073096;28;20068;-92
2022/10/05 03:18:54;;;;;;;21.27;11.07;;;;;;;12.64;100.00;99652.19;5072965;28;20494;-94
2022/10/05 03:21:36;;;;;;;21.15;9.88;;;;;;;12.72;100.00;99655.53;5071382;28;20041;-94
2022/10/05 03:24:21;;;;;;;22.33;10.32;;;;;;;12.73;100.00;99646.63;5069031;28;20119;-93
2022/10/05 03:26:55;;;;;;;19.35;9.68;;;;;;;12.86;100.00;99657.03;5073252;28;20228;-92
2022/10/05 03:29:31;;;;;;;22.13;9.75;;;;;;;12.87;100.00;99653.47;5073342;28;20036;-92
2022/10/05 03:32:05;;;;;;;23.95;9.68;;;;;;;12.92;100.00;99649.78;5069183;28;20033;-91
2022/10/05 03:34:36;;;;;;;19.10;10.55;;;;;;;12.93;100.00;99658.66;5073312;28;20459;-95
2022/10/05 03:37:09;;;;;;;18.13;9.68;;;;;;;12.88;100.00;99665.88;5073522;28;20037;-94
2022/10/05 03:39:40;;;;;;;21.02;9.25;;;;;;;12.72;100.00;99644.88;5072638;28;20064;-93
2022/10/05 03:42:15;;;;;;;22.23;10.07;;;;;;;12.66;100.00;99636.13;5072539;28;20047;-92
2022/10/05 03:44:48;;;;;;;16.30;8.98;;;;;;;12.68;100.00;99655.66;5069565;28;20037;-93
2022/10/05 03:47:24;;;;;;;17.00;9.35;;;;;;;12.77;100.00;99667.91;5072433;28;20040;-93
2022/10/05 03:50:08;;;;;;;22.73;10.10;;;;;;;12.67;100.00;99669.91;5071870;28;20492;-94
2022/10/05 03:52:38;;;;;;;19.40;9.68;;;;;;;12.63;100.00;99671.75;5069901;28;20095;-93
2022/10/05 03:55:12;;;;;;;18.27;9.43;;;;;;;12.62;100.00;99674.44;5071579;28;20037;-95
2022/10/05 03:57:40;;;;;;;17.65;8.95;;;;;;;12.44;100.00;99660.56;5073145;28;20566;-93
2022/10/05 04:00:13;;;;;;;19.00;9.35;;;;;;;12.31;100.00;99649.28;5071867;28;20131;-93
2022/10/05 04:02:44;;;;;;;18.10;9.43;;;;;;;12.29;100.00;99652.88;5074894;28;20501;-93
2022/10/05 04:05:15;;;;;;;15.73;9.20;;;;;;;12.39;100.00;99665.13;5077047;28;20072;-93
2022/10/05 04:07:46;;;;;;;20.23;9.30;;;;;;;12.22;100.00;99653.94;5075964;28;20044;-93
2022/10/05 04:10:16;;;;;;;18.02;8.57;;;;;;;12.12;100.00;99642.53;5076687;28;20041;-93
2022/10/05 04:12:48;;;;;;;13.38;8.10;;;;;;;12.11;100.00;99655.00;5069876;28;20501;-94
2022/10/05 04:15:22;;;;;;;18.00;8.45;;;;;;;12.11;100.00;99662.13;5075574;28;20044;-93
2022/10/05 04:17:54;;;;;;;15.55;8.75;;;;;;;12.04;100.00;99661.38;5076522;28;20489;-93
2022/10/05 04:20:25;;;;;;;18.98;9.82;;;;;;;12.05;100.00;99668.44;5076957;28;20040;-94
2022/10/05 04:23:00;;;;;;;19.17;8.90;;;;;;;12.05;100.00;99675.56;5076275;28;20100;-92
2022/10/05 04:25:29;;;;;;;20.25;9.75;;;;;;;12.01;100.00;99668.53;5076520;28;20041;-94
2022/10/05 04:28:03;;;;;;;18.30;9.43;;;;;;;12.06;100.00;99680.88;5076627;28;20048;-93
2022/10/05 04:30:31;;;;;;;19.83;10.20;;;;;;;11.97;100.00;99669.50;5076331;28;20051;-92
2022/10/05 04:32:59;;;;;;;18.98;9.32;;;;;;;12.04;100.00;99680.03;5078126;28;20059;-94
2022/10/05 04:35:37;;;;;;;19.00;10.93;;;;;;;12.01;100.00;99682.72;5078552;28;20037;-94
2022/10/05 04:38:19;;;;;;;21.33;10.40;;;;;;;11.95;100.00;99688.22;5078390;28;20318;-94
2022/10/05 04:40:59;;;;;;;20.15;10.52;;;;;;;11.92;100.00;99694.44;5075667;28;20036;-93
2022/10/05 04:43:35;;;;;;;22.08;10.65;;;;;;;11.89;100.00;99698.97;5076731;28;20044;-93
2022/10/05 04:46:16;;;;;;;29.38;11.02;;;;;;;11.84;100.00;99687.47;5077045;28;20117;-93
2022/10/05 04:49:03;;;;;;;18.92;10.20;;;;;;;11.77;100.00;99675.16;5076539;28;20033;-93
2022/10/05 04:51:37;;;;;;;20.75;9.73;;;;;;;11.88;100.00;99686.53;5072652;28;20095;-93
2022/10/05 04:54:16;;;;;;;19.65;10.18;;;;;;;11.67;100.00;99670.00;5076184;28;20420;-92
2022/10/05 04:56:46;;;;;;;21.10;10.27;;;;;;;11.60;100.00;99676.34;5073520;28;20504;-92
2022/10/05 04:59:35;;;;;;;17.55;9.65;;;;;;;11.57;100.00;99686.16;5076852;28;20044;-93
2022/10/05 05:02:12;;;;;;;17.48;8.95;;;;;;;11.50;100.00;99683.59;5076556;28;20040;-94
2022/10/05 05:04:57;;;;;;;16.70;8.65;;;;;;;11.45;100.00;99688.13;5076391;28;20045;-93
2022/10/05 05:07:39;;;;;;;19.05;9.77;;;;;;;11.41;100.00;99688.19;5068084;28;20076;-93
2022/10/05 05:10:38;;;;;;;16.95;9.10;;;;;;;11.32;100.00;99686.56;5077602;28;20044;-94
2022/10/05 05:13:11;;;;;;;;;;;;;;;11.35;100.00;99707.81;5077423;28;20036;-94
2022/10/05 05:15:48;;;;;;;14.60;8.05;;;;;;;11.16;100.00;99675.25;5067594;28;19921;-93
2022/10/05 05:18:44;;;;;;;15.73;8.27;;;;;;;11.21;100.00;99684.06;5077559;28;20043;-93
2022/10/05 05:21:23;;;;;;;15.48;7.80;;;;;;;11.31;100.00;99708.75;5062585;28;20481;-94
2022/10/05 05:23:56;;;;;;;15.77;8.60;;;;;;;11.23;100.00;99686.69;5076882;28;20045;-94
2022/10/05 05:26:29;;;;;;;18.27;9.07;;;;;;;11.21;100.00;99684.06;5076818;28;20033;-94
2022/10/05 05:29:06;;;;;;;21.65;9.32;;;;;;;11.18;100.00;99699.19;5076426;28;20055;-94
2022/10/05 05:31:43;;;;;;;20.98;8.80;;;;;;;11.28;100.00;99708.81;5075964;28;20097;-94
2022/10/05 05:34:26;;;;;;;66.72;10.88;;;;;;;11.25;100.00;99706.16;5075675;28;20382;-94
2022/10/05 05:37:00;;;;;;;17.10;9.25;;;;;;;11.26;100.00;99711.47;5064612;28;20032;-93
2022/10/05 05:39:32;;;;;;;21.35;9.38;;;;;;;11.18;100.00;99683.22;5077370;28;20170;-95
2022/10/05 05:42:01;;;;;;;18.00;8.82;;;;;;;11.19;100.00;99679.63;5078078;28;20045;-94
2022/10/05 05:44:32;;;;;;;16.17;8.52;;;;;;;11.22;100.00;99684.94;5077438;28;20516;-95
2022/10/05 05:47:01;;;;;;;16.65;8.50;;;;;;;11.33;100.00;99698.09;5076233;28;20049;-95
2022/10/05 05:49:36;;;;;;;15.68;8.25;;;;;;;11.27;100.00;99694.59;5076142;28;20041;-94
2022/10/05 05:52:13;;;;;;;20.48;8.90;;;;;;;11.41;100.00;99701.50;5075867;28;20045;-95
2022/10/05 05:54:43;;;;;;;23.80;9.60;;;;;;;11.41;100.00;99693.53;5076584;28;20562;-94
2022/10/05 05:57:18;;;;;;;54.00;11.38;;;;;;;11.26;100.00;99700.84;5081123;28;20044;-95
2022/10/05 06:00:04;;;;;;;41.17;10.35;;;;;;;11.24;100.00;99691.13;5081392;28;20040;-96
2022/10/05 06:02:39;;;;;;;68.90;12.40;;;;;;;11.33;100.00;99719.38;5079833;28;20041;-95
2022/10/05 06:05:24;;;;;;;91.57;12.00;;;;;;;11.17;100.00;99690.31;5080516;28;20040;-94
2022/10/05 06:07:54;;;;;;;69.05;11.23;;;;;;;11.26;100.00;99708.81;5079621;28;20101;-95
2022/10/05 06:10:29;;;;;;;32.03;9.90;;;;;;;11.25;100.00;99685.75;5079853;28;20067;-95
2022/10/05 06:12:58;;;;;;;59.67;11.07;;;;;;;11.29;100.00;99697.25;5077961;28;20044;-95
2022/10/05 06:15:28;;;;;;;;;;;;;;;11.54;100.00;99721.72;5077644;28;20517;-94
2022/10/05 06:17:59;;;;;;;20.05;9.23;;;;;;;11.49;100.00;99700.50;5077358;28;20011;-96
2022/10/05 06:20:29;;;;;;;21.65;9.98;;;;;;;11.65;100.00;99710.91;5077355;28;20505;-95
2022/10/05 06:23:02;;;;;;;19.42;9.60;;;;;;;11.72;100.00;99701.88;5077013;28;20044;-95
2022/10/05 06:25:38;;;;;;;19.85;9.65;;;;;;;11.76;100.00;99706.25;5075779;28;20066;-96
2022/10/05 06:28:11;;;;;;;25.73;9.68;;;;;;;11.93;100.00;99724.66;5076513;28;20044;-96
2022/10/05 06:30:50;;;;;;;24.42;10.00;;;;;;;11.94;100.00;99722.88;5076314;28;20041;-95
2022/10/05 06:33:26;;;;;;;47.22;9.70;;;;;;;11.89;100.00;99710.50;5076178;28;20052;-95
2022/10/05 06:36:05;;;;;;;36.50;10.05;;;;;;;11.99;100.00;99726.31;5077065;28;20041;-95
2022/10/05 06:38:53;;;;;;;34.60;9.48;;;;;;;11.97;100.00;99733.47;5077051;28;20037;-95
2022/10/05 06:41:29;;;;;;;33.08;10.18;;;;;;;11.94;100.00;99715.75;5076952;28;20049;-95
2022/10/05 06:43:57;;;;;;;28.73;10.70;;;;;;;12.01;100.00;99705.84;5077660;28;20045;-95
2022/10/05 06:46:28;;;;;;;52.85;10.82;;;;;;;12.01;100.00;99701.41;5078204;28;20094;-94
2022/10/05 06:49:17;;;;;;;18.02;9.88;;;;;;;12.30;100.00;99732.00;5076710;28;20070;-95
2022/10/05 06:51:51;;;;;;;16.65;9.35;;;;;;;12.42;100.00;99726.41;5076360;28;20505;-96
2022/10/05 06:54:40;;;;;;;19.95;10.43;;;;;;;12.48;100.00;99709.44;5076071;28;20091;-95
2022/10/05 06:57:15;;;;;;;25.88;10.32;;;;;;;12.71;100.00;99717.84;5075646;28;20040;-94
2022/10/05 06:59:48;;;;;;;23.75;9.75;;;;;;;12.74;100.00;99711.56;5076763;28;20040;-96
2022/10/05 07:02:24;;;;;;;23.55;10.35;;;;;;;12.91;100.00;99729.91;5075441;28;20131;-94
2022/10/05 07:05:20;;;;;;;20.52;9.95;;;;;;;13.01;100.00;99717.22;5074934;28;20048;-95
2022/10/05 07:07:52;;;;;;;17.38;9.23;;;;;;;13.30;100.00;99738.84;5074482;28;20131;-93
2022/10/05 07:10:30;;;;;;;21.30;10.25;;;;;;;13.33;100.00;99732.56;5076014;28;20132;-96
2022/10/05 07:13:19;;;;;;;23.02;10.85;;;;;;;13.31;100.00;99727.25;5075944;28;20052;-95
2022/10/05 07:15:53;;;;;;;;;;;;;;;13.65;100.00;99747.84;5078236;28;20061;-95
2022/10/05 07:18:44;;;;;;;20.83;10.75;;;;;;;13.54;100.00;99731.19;5077772;28;19928;-94
2022/10/05 07:21:17;;;;;;;20.92;9.95;;;;;;;13.46;100.00;99749.19;5077557;28;20108;-94
2022/10/05 07:24:03;;;;;;;20.25;10.70;;;;;;;13.39;100.00;99740.44;5076549;28;20049;-95
2022/10/05 07:26:37;;;;;;;38.65;11.77;;;;;;;13.22;100.00;99732.78;5075785;28;20060;-95
2022/10/05 07:29:22;;;;;;;33.70;12.30;;;;;;;13.19;100.00;99754.22;5076048;28;20098;-94
2022/10/05 07:31:55;;;;;;;24.90;11.52;;;;;;;13.42;100.00;99752.84;5075464;28;20040;-94
2022/10/05 07:34:31;;;;;;;22.02;11.48;;;;;;;13.55;100.00;99741.84;5075284;28;20036;-94
2022/10/05 07:40:12;;;;;;;20.45;11.43;;;;;;;14.24;100.00;99744.56;5134749;27;20453;-96
2022/10/05 07:42:55;;;;;;;22.17;10.35;;;;;;;14.33;100.00;99739.00;5134670;28;20043;-94
2022/10/05 07:45:27;;;;;;;16.52;9.45;;;;;;;14.53;100.00;99738.44;5134158;28;20039;-95
2022/10/05 07:47:55;;;;;;;20.77;9.43;;;;;;;14.67;100.00;99747.94;5134028;28;20043;-95
2022/10/05 07:50:27;;;;;;;19.33;10.48;;;;;;;14.61;100.00;99754.31;5135173;28;20044;-94
2022/10/05 07:52:57;;;;;;;18.52;10.27;;;;;;;14.63;100.00;99752.47;5133639;28;20096;-95
2022/10/05 07:55:25;;;;;;;18.50;10.10;;;;;;;14.80;100.00;99749.31;5133403;28;20050;-94
2022/10/05 07:58:03;;;;;;;17.05;10.18;;;;;;;14.65;100.00;99752.44;5134152;28;20504;-96
2022/10/05 08:00:47;;;;;;;17.40;10.23;;;;;;;14.93;100.00;99758.75;5153294;27;20053;-94
2022/10/05 08:03:22;;;;;;;17.33;9.65;;;;;;;15.16;100.00;99744.69;5153547;27;20400;-95
2022/10/05 08:05:48;;;;;;;19.13;9.65;;;;;;;15.37;100.00;99753.00;5154204;27;20046;-95
2022/10/05 08:08:22;;;;;;;23.50;11.98;;;;;;;15.54;97.53;99752.47;5138002;27;20134;-95
2022/10/05 08:10:54;;;;;;;22.90;11.63;;;;;;;15.30;99.61;99741.59;5133036;28;20074;-94
2022/10/05 08:13:29;;;;;;;19.45;10.98;;;;;;;15.32;100.00;99753.13;5133439;28;20043;-96
2022/10/05 08:15:59;;;;;;;17.08;10.00;;;;;;;15.59;98.24;99742.47;5134787;27;20040;-96
2022/10/05 08:18:40;;;;;;;18.92;9.60;;;;;;;15.91;95.71;99748.63;5135700;27;20122;-96
2022/10/05 08:21:10;;;;;;;17.75;9.90;;;;;;;16.07;96.40;99740.94;5135509;27;20103;-95
2022/10/05 08:23:45;;;;;;;17.02;9.43;;;;;;;16.22;94.22;99738.63;5136614;27;20036;-95
2022/10/05 08:26:23;;;;;;;17.50;9.60;;;;;;;16.46;92.70;99752.13;5133782;28;20082;-95
2022/10/05 08:29:02;;;;;;;15.45;8.10;;;;;;;16.56;92.41;99737.41;5132943;27;20036;-93
2022/10/05 08:31:32;;;;;;;13.75;7.68;;;;;;;16.83;89.43;99737.38;5135828;27;20048;-95
2022/10/05 08:34:17;;;;;;;15.45;8.27;;;;;;;16.97;87.63;99745.78;5132951;27;20039;-95
2022/10/05 08:36:52;;;;;;;14.60;8.10;;;;;;;17.14;88.89;99750.53;5133120;27;20052;-94
2022/10/05 08:39:20;;;;;;;12.45;7.60;;;;;;;17.16;88.08;99762.09;5132690;28;20100;-95
2022/10/05 08:42:19;;;;;;;14.50;7.63;;;;;;;17.34;87.93;99752.44;5133153;27;20047;-96
2022/10/05 08:45:32;;;;;;;13.82;7.97;;;;;;;17.71;86.68;99768.94;5133016;28;20075;-95
2022/10/05 08:48:25;;;;;;;13.73;7.22;;;;;;;17.85;84.70;99756.69;5132699;28;20040;-96
2022/10/05 08:51:31;;;;;;;10.77;7.28;;;;;;;18.02;84.13;99753.31;5121731;27;20040;-96
2022/10/05 08:54:28;;;;;;;13.25;8.07;;;;;;;18.26;83.82;99755.91;5134285;27;20091;-95
2022/10/05 08:57:15;;;;;;;10.43;7.20;;;;;;;18.29;82.13;99738.75;5140146;27;20138;-96
2022/10/05 09:00:02;;;;;;;13.40;7.72;;;;;;;18.41;80.44;99746.28;5139707;27;20042;-95
2022/10/05 09:02:49;;;;;;;16.05;8.15;;;;;;;18.28;81.27;99759.38;5138637;27;20540;-96
2022/10/05 09:05:34;;;;;;;13.15;7.70;;;;;;;18.33;82.03;99737.69;5138658;27;20067;-94
2022/10/05 09:08:44;;;;;;;16.08;8.48;;;;;;;18.69;80.26;99762.09;5139079;27;20062;-95
2022/10/05 09:11:15;;;;;;;12.35;7.50;;;;;;;18.75;80.18;99750.19;5125403;27;20038;-96
2022/10/05 09:14:21;;;;;;;14.60;8.02;;;;;;;18.88;79.59;99760.34;5118937;28;20523;-94
2022/10/05 09:16:52;;;;;;;13.32;8.10;;;;;;;18.99;78.84;99756.31;5118452;28;20051;-95
2022/10/05 09:19:56;;;;;;;12.18;7.72;;;;;;;19.08;78.55;99777.44;5117991;28;20043;-95
2022/10/05 09:22:37;;;;;;;14.60;8.90;;;;;;;18.98;78.36;99777.00;5096298;28;20047;-96
2022/10/05 09:25:18;;;;;;;14.45;8.05;;;;;;;19.14;77.58;99770.91;5118708;28;20508;-96
2022/10/05 09:27:52;;;;;;;15.77;8.23;;;;;;;19.24;77.85;99769.53;5118925;28;20075;-95
2022/10/05 09:30:35;;;;;;;15.13;8.30;;;;;;;19.46;76.85;99782.88;5117989;28;20039;-96
2022/10/05 09:33:36;;;;;;;13.27;8.38;;;;;;;19.64;75.01;99781.97;5118276;28;20044;-95
2022/10/05 09:36:50;;;;;;;20.67;9.65;;;;;;;19.72;73.71;99773.56;5110259;27;20051;-95
2022/10/05 09:39:55;;;;;;;13.98;8.60;;;;;;;19.90;75.63;99777.19;5074663;28;20048;-95
2022/10/05 09:42:49;;;;;;;18.60;8.82;;;;;;;20.02;75.60;99781.13;5074730;28;20079;-95
2022/10/05 09:45:47;;;;;;;15.32;7.75;;;;;;;20.15;75.36;99760.63;5077548;28;20080;-96
2022/10/05 09:48:54;;;;;;;14.93;8.68;;;;;;;20.28;73.11;99755.50;5095443;28;20051;-95
2022/10/05 09:52:01;;;;;;;14.35;8.43;;;;;;;20.26;73.73;99746.59;5095254;28;20146;-95
2022/10/05 09:55:12;;;;;;;17.60;8.43;;;;;;;20.45;73.39;99758.19;5081995;28;20094;-96
2022/10/05 09:58:17;;;;;;;16.70;8.88;;;;;;;20.60;72.67;99767.38;5095640;28;20055;-94
2022/10/05 10:01:00;;;;;;;16.83;8.75;;;;;;;20.67;71.52;99765.22;5094554;28;20512;-96
2022/10/05 10:03:57;;;;;;;16.10;8.57;;;;;;;20.71;71.55;99770.38;5094776;28;20466;-96
2022/10/05 10:06:54;;;;;;;17.38;8.70;;;;;;;20.75;72.62;99756.69;5054871;28;20049;-96
2022/10/05 10:09:29;;;;;;;20.40;9.18;;;;;;;20.71;71.84;99756.00;5054339;28;20047;-96
2022/10/05 10:12:31;;;;;;;16.45;9.07;;;;;;;20.63;72.02;99753.69;5055683;28;20091;-94
2022/10/05 10:15:35;;;;;;;17.35;9.10;;;;;;;20.35;70.54;99748.81;5096026;28;20090;-94
2022/10/05 10:18:10;;;;;;;17.27;8.48;;;;;;;;;;5090678;28;20044;-96
2022/10/05 10:20:55;;;;;;;14.43;8.50;;;;;;;20.63;73.09;99758.22;5097196;28;20063;-95
2022/10/05 10:23:39;;;;;;;15.15;8.10;;;;;;;20.75;72.23;99762.09;5096170;28;20044;-96
2022/10/05 10:26:41;;;;;;;17.40;8.05;;;;;;;20.86;71.82;99770.50;5096982;28;20065;-96
2022/10/05 10:29:33;;;;;;;15.80;7.97;;;;;;;20.90;71.44;99754.00;5096451;28;20385;-95
2022/10/05 10:32:18;;;;;;;15.20;7.90;;;;;;;20.94;71.65;99754.72;5051970;28;20508;-95
2022/10/05 10:35:09;;;;;;;16.63;8.65;;;;;;;20.64;70.98;99739.19;5095761;28;20052;-95
2022/10/05 10:38:18;;;;;;;18.52;8.57;;;;;;;20.63;72.55;99734.75;5095725;28;20059;-94
2022/10/05 10:41:03;;;;;;;16.90;8.25;;;;;;;20.72;72.82;99742.38;5095837;28;20044;-94
2022/10/05 10:43:49;;;;;;;16.17;9.18;;;;;;;20.73;72.40;99751.34;5095697;28;20047;-93
2022/10/05 10:46:26;;;;;;;15.38;8.55;;;;;;;20.86;74.35;99756.97;5123930;27;20043;-93
2022/10/05 10:49:14;;;;;;;18.40;10.27;;;;;;;20.80;71.42;99746.50;5115579;28;20032;-94
2022/10/05 10:52:14;;;;;;;20.30;10.20;;;;;;;20.91;72.30;99763.88;5123646;27;20037;-96
2022/10/05 10:54:57;;;;;;;16.33;9.68;;;;;;;20.91;72.82;99754.91;5108114;28;20039;-94
2022/10/05 10:57:38;;;;;;;20.02;12.07;;;;;;;20.94;71.36;99754.72;5115416;28;20055;-93
2022/10/05 11:00:38;;;;;;;26.85;12.25;;;;;;;21.06;72.18;99754.06;5115486;28;20038;-94
2022/10/05 11:03:39;;;;;;;25.00;13.30;;;;;;;21.03;70.81;99751.53;5113004;28;20059;-93
2022/10/05 11:06:31;;;;;;;21.75;12.30;;;;;;;20.96;71.92;99727.63;5100314;28;20063;-96
2022/10/05 11:09:22;;;;;;;24.17;11.07;;;;;;;21.17;71.28;99750.78;5101775;28;20444;-93
2022/10/05 11:12:21;;;;;;;22.50;12.00;;;;;;;21.26;70.39;99749.41;5094726;28;20174;-93
2022/10/05 11:15:21;;;;;;;20.30;11.00;;;;;;;21.17;69.30;99718.34;5094603;28;20066;-94
2022/10/05 11:18:00;;;;;;;20.45;11.75;;;;;;;21.30;69.15;99732.03;5094878;28;20131;-93
2022/10/05 11:20:54;;;;;;;16.23;9.45;;;;;;;21.40;67.67;99719.72;5095522;28;20051;-94
2022/10/05 11:23:55;;;;;;;18.45;9.60;;;;;;;21.57;67.48;99729.63;5111040;27;20035;-93
2022/10/05 11:26:49;;;;;;;16.58;9.75;;;;;;;21.59;68.11;99721.44;5135494;27;20398;-94
2022/10/05 11:29:54;;;;;;;19.77;9.35;;;;;;;21.66;69.33;99720.97;5128162;27;20054;-93
2022/10/05 11:32:45;;;;;;;16.40;9.30;;;;;;;21.62;67.51;99710.41;5073019;28;20544;-93
2022/10/05 11:35:40;;;;;;;19.38;9.23;;;;;;;21.66;66.42;99709.28;5072756;28;20038;-95
2022/10/05 11:38:41;;;;;;;13.82;7.80;;;;;;;21.60;64.12;99690.69;5048241;28;20588;-95
2022/10/05 11:41:43;;;;;;;14.65;7.55;;;;;;;21.69;63.99;99703.72;5050319;28;20041;-94
2022/10/05 11:44:52;;;;;;;15.57;7.50;;;;;;;21.72;62.04;99692.69;5053074;28;20056;-95
2022/10/05 11:47:23;;;;;;;19.08;7.70;;;;;;;21.68;62.87;99693.81;5053265;28;20044;-94
2022/10/05 11:50:04;;;;;;;17.20;7.57;;;;;;;21.64;62.17;99676.00;5052640;28;20045;-93
2022/10/05 11:52:35;;;;;;;13.77;7.38;;;;;;;21.68;61.91;99670.31;5052575;28;20153;-93
2022/10/05 11:55:22;;;;;;;17.67;7.65;;;;;;;21.87;61.55;99667.41;5052228;28;20045;-94
2022/10/05 11:57:53;;;;;;;11.52;6.95;;;;;;;21.92;60.93;99672.56;5065459;28;20060;-94
2022/10/05 12:00:21;;;;;;;13.65;7.05;;;;;;;21.93;60.62;99664.34;5053517;28;20545;-93
2022/10/05 12:03:14;;;;;;;14.15;6.95;;;;;;;22.14;59.47;99677.56;5061013;28;20045;-94
2022/10/05 12:05:51;;;;;;;12.93;7.03;;;;;;;22.07;59.53;99668.94;5072601;28;20044;-96
2022/10/05 12:08:30;;;;;;;11.88;6.50;;;;;;;22.10;57.47;99670.59;5077151;28;20122;-95
2022/10/05 12:11:07;;;;;;;11.25;6.72;;;;;;;22.10;59.36;99667.91;5115076;28;20047;-95
2022/10/05 12:13:44;;;;;;;14.52;6.78;;;;;;;22.13;58.69;99659.56;5115032;28;20047;-94
2022/10/05 12:16:17;;;;;;;12.15;6.72;;;;;;;22.18;55.73;99662.00;5114685;28;20100;-94
2022/10/05 12:18:56;;;;;;;12.38;6.55;;;;;;;22.22;55.50;99664.44;5120399;28;20035;-95